createdAt,value
2023-08-17T00:00:22.357Z,4.20
2023-08-17T00:00:54.160Z,5.30
2023-08-17T00:01:26.489Z,5.00
2023-08-17T00:01:58.278Z,6.22
2023-08-17T00:02:30.212Z,4.57
2023-08-17T00:03:02.458Z,4.55
2023-08-17T00:03:34.424Z,4.85
2023-08-17T00:04:06.550Z,4.70
2023-08-17T00:04:38.479Z,4.28
2023-08-17T00:05:10.908Z,6.68
2023-08-17T00:05:43.471Z,5.93
2023-08-17T00:06:15.304Z,4.65
2023-08-17T00:06:48.069Z,5.20
2023-08-17T00:07:20.378Z,5.72
2023-08-17T00:07:53.498Z,4.80
2023-08-17T00:08:25.410Z,4.85
2023-08-17T00:08:57.571Z,4.40
2023-08-17T00:09:29.421Z,4.63
2023-08-17T00:10:01.917Z,5.78
2023-08-17T00:10:33.923Z,6.20
2023-08-17T00:11:06.440Z,5.22
2023-08-17T00:11:38.180Z,7.68
2023-08-17T00:12:10.087Z,4.68
2023-08-17T00:12:42.000Z,5.72
2023-08-17T00:13:15.457Z,4.53
2023-08-17T00:13:47.307Z,4.32
2023-08-17T00:14:19.445Z,5.35
2023-08-17T00:14:52.028Z,4.07
2023-08-17T00:15:24.065Z,4.97
2023-08-17T00:15:56.460Z,6.03
2023-08-17T00:16:28.630Z,5.47
2023-08-17T00:17:00.561Z,5.00
2023-08-17T00:17:32.424Z,4.80
2023-08-17T00:18:04.577Z,3.85
2023-08-17T00:18:36.438Z,7.28
2023-08-17T00:19:08.723Z,8.95
2023-08-17T00:19:40.565Z,5.03
2023-08-17T00:20:12.570Z,5.35
2023-08-17T00:20:45.330Z,6.75
2023-08-17T00:21:17.724Z,6.40
2023-08-17T00:21:50.525Z,4.70
2023-08-17T00:22:22.265Z,4.82
2023-08-17T00:22:54.435Z,5.60
2023-08-17T00:23:26.252Z,8.18
2023-08-17T00:23:58.366Z,5.35
2023-08-17T00:24:30.580Z,6.85
2023-08-17T00:25:05.716Z,6.80
2023-08-17T00:25:37.581Z,6.80
2023-08-17T00:26:10.024Z,5.57
2023-08-17T00:26:41.895Z,6.00
2023-08-17T00:27:13.666Z,4.80
2023-08-17T00:27:45.444Z,5.78
2023-08-17T00:28:17.276Z,5.88
2023-08-17T00:28:49.031Z,5.50
2023-08-17T00:29:20.803Z,6.40
2023-08-17T00:29:52.636Z,8.63
2023-08-17T00:30:24.621Z,6.38
2023-08-17T00:30:56.654Z,5.65
2023-08-17T00:31:28.407Z,6.63
2023-08-17T00:32:00.698Z,5.28
2023-08-17T00:32:32.497Z,4.72
2023-08-17T00:33:04.688Z,7.90
2023-08-17T00:33:36.459Z,5.47
2023-08-17T00:34:08.221Z,5.20
2023-08-17T00:34:40.046Z,7.30
2023-08-17T00:35:11.884Z,6.50
2023-08-17T00:35:43.958Z,7.07
2023-08-17T00:36:15.867Z,6.80
2023-08-17T00:36:47.749Z,5.28
2023-08-17T00:37:19.629Z,4.80
2023-08-17T00:37:51.507Z,5.00
2023-08-17T00:38:23.520Z,7.30
2023-08-17T00:38:55.314Z,5.90
2023-08-17T00:39:27.305Z,6.85
2023-08-17T00:39:59.184Z,7.55
2023-08-17T00:40:30.953Z,6.32
2023-08-17T00:41:02.727Z,5.18
2023-08-17T00:41:35.439Z,5.65
2023-08-17T00:42:09.080Z,5.38
2023-08-17T00:42:40.916Z,9.10
2023-08-17T00:43:12.716Z,9.18
2023-08-17T00:43:44.499Z,6.18
2023-08-17T00:44:16.214Z,8.07
2023-08-17T00:44:48.222Z,5.45
2023-08-17T00:45:20.044Z,5.75
2023-08-17T00:45:52.789Z,7.00
2023-08-17T00:46:25.226Z,5.35
2023-08-17T00:46:57.632Z,5.30
2023-08-17T00:47:29.631Z,5.53
2023-08-17T00:48:02.760Z,5.35
2023-08-17T00:48:35.398Z,6.63
2023-08-17T00:49:07.764Z,5.15
2023-08-17T00:49:39.769Z,6.13
2023-08-17T00:50:12.854Z,5.85
2023-08-17T00:50:46.362Z,5.57
2023-08-17T00:51:21.275Z,5.15
2023-08-17T00:51:53.261Z,5.05
2023-08-17T00:52:25.153Z,6.35
2023-08-17T00:52:57.303Z,6.40
2023-08-17T00:53:32.553Z,5.20
2023-08-17T00:54:05.505Z,5.50
2023-08-17T00:54:37.384Z,7.00
2023-08-17T00:55:12.298Z,4.78
2023-08-17T00:55:44.556Z,5.10
2023-08-17T00:56:16.793Z,5.07
2023-08-17T00:56:48.818Z,5.65
2023-08-17T00:57:21.956Z,5.78
2023-08-17T00:57:56.633Z,5.70
2023-08-17T00:58:29.094Z,12.35
2023-08-17T00:59:01.065Z,5.95
2023-08-17T00:59:36.997Z,6.53
2023-08-17T01:00:16.381Z,8.13
2023-08-17T01:00:50.195Z,5.88
2023-08-17T01:01:22.611Z,5.40
2023-08-17T01:01:54.675Z,5.68
2023-08-17T01:02:26.540Z,7.15
2023-08-17T01:02:58.482Z,6.97
2023-08-17T01:03:31.386Z,5.78
2023-08-17T01:04:04.870Z,5.50
2023-08-17T01:04:36.789Z,5.53
2023-08-17T01:05:09.168Z,6.47
2023-08-17T01:05:41.370Z,5.82
2023-08-17T01:06:13.412Z,5.93
2023-08-17T01:06:45.179Z,5.88
2023-08-17T01:07:16.988Z,6.63
2023-08-17T01:07:49.021Z,6.93
2023-08-17T01:08:20.758Z,6.25
2023-08-17T01:08:52.660Z,4.82
2023-08-17T01:09:24.682Z,5.47
2023-08-17T01:09:56.673Z,6.35
2023-08-17T01:10:42.368Z,8.05
2023-08-17T01:11:29.963Z,6.00
2023-08-17T01:12:15.387Z,6.22
2023-08-17T01:13:01.742Z,7.75
2023-08-17T01:13:41.708Z,6.07
2023-08-17T01:14:20.756Z,5.57
2023-08-17T01:15:01.540Z,5.35
2023-08-17T01:15:38.174Z,7.35
2023-08-17T01:16:15.851Z,5.82
2023-08-17T01:16:53.565Z,5.20
2023-08-17T01:17:41.036Z,5.88
2023-08-17T01:18:24.354Z,5.75
2023-08-17T01:18:58.698Z,6.53
2023-08-17T01:19:30.776Z,6.05
2023-08-17T01:20:05.229Z,7.85
2023-08-17T01:20:39.138Z,6.32
2023-08-17T01:21:17.543Z,6.45
2023-08-17T01:21:51.803Z,5.68
2023-08-17T01:22:25.767Z,10.13
2023-08-17T01:23:06.097Z,7.43
2023-08-17T01:23:37.917Z,5.13
2023-08-17T01:24:09.969Z,4.68
2023-08-17T01:24:41.788Z,5.10
2023-08-17T01:25:13.850Z,5.90
2023-08-17T01:25:45.924Z,5.10
2023-08-17T01:26:18.096Z,5.15
2023-08-17T01:26:50.380Z,7.07
2023-08-17T01:27:22.118Z,5.25
2023-08-17T01:27:53.878Z,7.47
2023-08-17T01:28:25.916Z,5.93
2023-08-17T01:28:57.770Z,6.45
2023-08-17T01:29:29.745Z,5.47
2023-08-17T01:30:02.910Z,6.78
2023-08-17T01:30:40.653Z,8.45
2023-08-17T01:31:32.727Z,7.45
2023-08-17T01:32:27.945Z,7.03
2023-08-17T01:33:10.638Z,8.05
2023-08-17T01:33:49.084Z,6.57
2023-08-17T01:34:25.161Z,4.82
2023-08-17T01:35:05.843Z,8.65
2023-08-17T01:35:55.092Z,5.20
2023-08-17T01:36:31.549Z,5.68
2023-08-17T01:37:08.515Z,5.15
2023-08-17T01:37:43.383Z,5.72
2023-08-17T01:38:21.520Z,7.03
2023-08-17T01:38:56.659Z,5.20
2023-08-17T01:39:44.146Z,10.13
2023-08-17T01:40:16.853Z,7.40
2023-08-17T01:40:51.560Z,5.55
2023-08-17T01:41:24.729Z,5.05
2023-08-17T01:41:58.486Z,5.70
2023-08-17T01:42:30.663Z,7.10
2023-08-17T01:43:05.048Z,4.90
2023-08-17T01:43:36.957Z,6.88
2023-08-17T01:44:08.944Z,5.88
2023-08-17T01:44:41.150Z,5.22
2023-08-17T01:45:13.582Z,5.65
2023-08-17T01:45:45.350Z,5.68
2023-08-17T01:46:18.438Z,6.20
2023-08-17T01:46:50.378Z,5.55
2023-08-17T01:47:25.916Z,5.20
2023-08-17T01:47:58.581Z,5.03
2023-08-17T01:48:30.584Z,5.32
2023-08-17T01:49:02.381Z,5.47
2023-08-17T01:49:36.018Z,5.28
2023-08-17T01:50:08.119Z,7.95
2023-08-17T01:50:39.994Z,5.35
2023-08-17T01:51:13.188Z,10.13
2023-08-17T01:51:44.973Z,6.25
2023-08-17T01:52:16.793Z,5.75
2023-08-17T01:52:48.854Z,7.13
2023-08-17T01:53:20.977Z,5.60
2023-08-17T01:53:54.185Z,5.78
2023-08-17T01:54:27.313Z,6.55
2023-08-17T01:54:59.074Z,5.90
2023-08-17T01:55:31.358Z,8.05
2023-08-17T01:56:03.490Z,5.55
2023-08-17T01:56:35.284Z,6.47
2023-08-17T01:57:07.241Z,6.28
2023-08-17T01:57:40.038Z,7.68
2023-08-17T01:58:11.881Z,7.47
2023-08-17T01:58:44.088Z,8.68
2023-08-17T01:59:15.993Z,6.63
2023-08-17T01:59:47.903Z,10.07
2023-08-17T02:00:20.508Z,8.32
2023-08-17T02:00:52.280Z,8.00
2023-08-17T02:01:25.057Z,8.45
2023-08-17T02:01:57.002Z,6.40
2023-08-17T02:02:30.776Z,10.25
2023-08-17T02:03:02.670Z,6.38
2023-08-17T02:03:35.410Z,7.78
2023-08-17T02:04:07.463Z,7.93
2023-08-17T02:04:39.277Z,6.03
2023-08-17T02:05:12.947Z,6.90
2023-08-17T02:05:48.202Z,8.02
2023-08-17T02:06:20.979Z,7.22
2023-08-17T02:06:54.277Z,7.78
2023-08-17T02:07:26.285Z,6.35
2023-08-17T02:07:58.245Z,7.25
2023-08-17T02:08:30.844Z,8.63
2023-08-17T02:09:03.264Z,8.50
2023-08-17T02:09:35.275Z,6.43
2023-08-17T02:10:07.809Z,7.53
2023-08-17T02:10:39.888Z,8.15
2023-08-17T02:11:12.399Z,7.45
2023-08-17T02:11:44.351Z,6.88
2023-08-17T02:12:17.888Z,8.88
2023-08-17T02:12:49.825Z,7.57
2023-08-17T02:13:22.474Z,8.73
2023-08-17T02:13:55.138Z,10.02
2023-08-17T02:14:27.031Z,8.45
2023-08-17T02:14:58.856Z,6.38
2023-08-17T02:15:31.590Z,6.97
2023-08-17T02:16:03.722Z,7.13
2023-08-17T02:16:35.557Z,6.90
2023-08-17T02:17:07.606Z,7.68
2023-08-17T02:17:39.458Z,8.88
2023-08-17T02:18:11.328Z,8.40
2023-08-17T02:18:43.196Z,7.75
2023-08-17T02:19:15.117Z,10.63
2023-08-17T02:19:48.779Z,9.32
2023-08-17T02:20:21.999Z,8.43
2023-08-17T02:20:53.841Z,7.13
2023-08-17T02:21:26.741Z,7.05
2023-08-17T02:22:00.022Z,10.70
2023-08-17T02:22:33.269Z,9.45
2023-08-17T02:23:05.369Z,6.78
2023-08-17T02:23:37.281Z,11.20
2023-08-17T02:24:09.057Z,7.20
2023-08-17T02:24:41.915Z,7.72
2023-08-17T02:25:13.758Z,8.02
2023-08-17T02:25:46.245Z,9.98
2023-08-17T02:26:18.978Z,9.02
2023-08-17T02:26:51.169Z,8.80
2023-08-17T02:27:23.485Z,6.97
2023-08-17T02:27:55.445Z,11.85
2023-08-17T02:28:27.250Z,11.00
2023-08-17T02:28:59.352Z,9.38
2023-08-17T02:29:31.207Z,8.65
2023-08-17T02:30:05.191Z,8.13
2023-08-17T02:30:37.193Z,7.03
2023-08-17T02:31:09.440Z,8.00
2023-08-17T02:31:41.328Z,7.30
2023-08-17T02:32:13.201Z,8.23
2023-08-17T02:32:45.023Z,12.90
2023-08-17T02:33:16.876Z,7.13
2023-08-17T02:33:48.782Z,9.98
2023-08-17T02:34:20.772Z,7.05
2023-08-17T02:34:52.618Z,7.22
2023-08-17T02:35:25.303Z,7.65
2023-08-17T02:35:57.506Z,8.18
2023-08-17T02:36:30.910Z,7.60
2023-08-17T02:37:02.823Z,7.70
2023-08-17T02:37:35.264Z,9.70
2023-08-17T02:38:07.144Z,9.55
2023-08-17T02:38:39.218Z,6.85
2023-08-17T02:39:11.104Z,7.22
2023-08-17T02:40:19.769Z,8.40
2023-08-17T02:40:51.666Z,8.43
2023-08-17T02:41:23.732Z,8.98
2023-08-17T02:41:56.234Z,10.95
2023-08-17T02:42:28.083Z,7.72
2023-08-17T02:43:00.214Z,7.95
2023-08-17T02:43:32.056Z,9.05
2023-08-17T02:44:05.138Z,7.88
2023-08-17T02:44:37.065Z,7.88
2023-08-17T02:45:09.682Z,8.43
2023-08-17T02:45:42.247Z,7.45
2023-08-17T02:46:33.033Z,7.78
2023-08-17T02:47:05.578Z,8.02
2023-08-17T02:47:37.398Z,9.15
2023-08-17T02:48:09.320Z,9.73
2023-08-17T02:48:41.187Z,10.93
2023-08-17T02:49:13.100Z,8.93
2023-08-17T02:49:44.941Z,7.93
2023-08-17T02:50:17.377Z,7.82
2023-08-17T02:50:49.145Z,11.05
2023-08-17T02:51:21.149Z,7.85
2023-08-17T02:51:53.277Z,9.25
2023-08-17T02:52:25.306Z,7.32
2023-08-17T02:52:57.653Z,7.60
2023-08-17T02:53:29.499Z,10.93
2023-08-17T02:54:02.135Z,9.70
2023-08-17T02:54:33.979Z,8.13
2023-08-17T02:55:06.412Z,10.18
2023-08-17T02:55:38.231Z,8.20
2023-08-17T02:56:12.966Z,9.30
2023-08-17T02:56:45.266Z,8.88
2023-08-17T02:57:17.250Z,8.30
2023-08-17T02:57:50.684Z,11.30
2023-08-17T02:58:23.393Z,9.77
2023-08-17T02:58:56.297Z,8.25
2023-08-17T02:59:28.504Z,9.63
2023-08-17T03:00:00.329Z,8.70
2023-08-17T03:00:35.073Z,7.40
2023-08-17T03:01:06.972Z,9.32
2023-08-17T03:01:40.351Z,8.65
2023-08-17T03:02:12.295Z,8.70
2023-08-17T03:02:44.150Z,9.25
2023-08-17T03:03:16.047Z,10.30
2023-08-17T03:03:47.856Z,8.23
2023-08-17T03:04:19.677Z,10.05
2023-08-17T03:04:51.493Z,11.73
2023-08-17T03:05:23.309Z,10.20
2023-08-17T03:05:55.062Z,9.55
2023-08-17T03:06:26.827Z,9.18
2023-08-17T03:06:58.629Z,9.95
2023-08-17T03:07:30.386Z,10.88
2023-08-17T03:08:02.225Z,8.98
2023-08-17T03:08:34.020Z,8.75
2023-08-17T03:09:05.800Z,9.70
2023-08-17T03:09:37.637Z,9.40
2023-08-17T03:10:09.768Z,10.10
2023-08-17T03:10:41.587Z,9.68
2023-08-17T03:11:13.504Z,9.65
2023-08-17T03:11:45.366Z,8.68
2023-08-17T03:12:17.215Z,10.18
2023-08-17T03:12:49.098Z,10.48
2023-08-17T03:13:21.640Z,11.88
2023-08-17T03:13:55.218Z,10.50
2023-08-17T03:14:27.028Z,9.98
2023-08-17T03:14:58.901Z,9.27
2023-08-17T03:15:31.190Z,8.80
2023-08-17T03:16:03.680Z,10.82
2023-08-17T03:16:35.855Z,8.95
2023-08-17T03:17:07.697Z,11.82
2023-08-17T03:17:40.206Z,11.45
2023-08-17T03:18:12.214Z,8.77
2023-08-17T03:18:45.735Z,8.85
2023-08-17T03:19:18.577Z,8.43
2023-08-17T03:19:50.867Z,9.00
2023-08-17T03:20:22.766Z,9.15
2023-08-17T03:20:54.568Z,8.32
2023-08-17T03:21:26.372Z,11.80
2023-08-17T03:21:58.168Z,8.55
2023-08-17T03:22:30.037Z,10.23
2023-08-17T03:23:01.915Z,9.52
2023-08-17T03:23:33.993Z,10.32
2023-08-17T03:24:06.447Z,9.25
2023-08-17T03:24:38.353Z,11.30
2023-08-17T03:25:10.312Z,8.80
2023-08-17T03:25:42.648Z,9.43
2023-08-17T03:26:14.390Z,8.32
2023-08-17T03:26:46.787Z,9.63
2023-08-17T03:27:18.757Z,10.63
2023-08-17T03:27:51.505Z,11.15
2023-08-17T03:28:23.726Z,11.68
2023-08-17T03:28:56.029Z,9.02
2023-08-17T03:29:28.307Z,9.20
2023-08-17T03:30:01.229Z,9.02
2023-08-17T03:30:33.331Z,8.65
2023-08-17T03:31:05.250Z,9.13
2023-08-17T03:31:37.194Z,9.52
2023-08-17T03:32:09.210Z,9.93
2023-08-17T03:32:42.089Z,10.63
2023-08-17T03:33:14.033Z,9.27
2023-08-17T03:33:45.770Z,10.32
2023-08-17T03:34:17.528Z,12.68
2023-08-17T03:34:49.290Z,8.70
2023-08-17T03:35:21.151Z,8.15
2023-08-17T03:35:53.535Z,9.13
2023-08-17T03:36:25.316Z,9.45
2023-08-17T03:36:58.426Z,9.13
2023-08-17T03:37:31.017Z,9.70
2023-08-17T03:38:02.922Z,9.27
2023-08-17T03:38:34.759Z,10.02
2023-08-17T03:39:06.622Z,8.95
2023-08-17T03:39:38.418Z,9.35
2023-08-17T03:40:10.385Z,8.45
2023-08-17T03:40:42.220Z,9.45
2023-08-17T03:41:14.051Z,9.25
2023-08-17T03:41:46.094Z,10.10
2023-08-17T03:42:18.327Z,10.52
2023-08-17T03:42:50.064Z,9.20
2023-08-17T03:43:22.429Z,11.32
2023-08-17T03:43:54.369Z,10.27
2023-08-17T03:44:26.363Z,10.95
2023-08-17T03:44:58.449Z,9.68
2023-08-17T03:45:31.690Z,10.38
2023-08-17T03:46:05.507Z,10.75
2023-08-17T03:46:37.284Z,8.82
2023-08-17T03:47:10.176Z,9.32
2023-08-17T03:47:41.920Z,10.98
2023-08-17T03:48:13.704Z,15.68
2023-08-17T03:48:46.067Z,9.27
2023-08-17T03:49:17.861Z,11.40
2023-08-17T03:49:49.934Z,9.65
2023-08-17T03:50:22.324Z,11.63
2023-08-17T03:50:56.162Z,9.07
2023-08-17T03:51:27.941Z,9.20
2023-08-17T03:52:01.291Z,8.35
2023-08-17T03:52:33.069Z,10.68
2023-08-17T03:53:05.207Z,8.63
2023-08-17T03:53:37.314Z,8.65
2023-08-17T03:54:09.111Z,8.50
2023-08-17T03:54:41.044Z,10.77
2023-08-17T03:55:12.989Z,9.50
2023-08-17T03:55:49.119Z,8.52
2023-08-17T03:56:20.988Z,11.75
2023-08-17T03:56:53.978Z,7.88
2023-08-17T03:57:26.091Z,8.60
2023-08-17T03:57:58.200Z,8.80
2023-08-17T03:58:34.413Z,9.38
2023-08-17T03:59:06.379Z,8.95
2023-08-17T03:59:38.144Z,9.00
2023-08-17T04:00:11.416Z,11.98
2023-08-17T04:00:52.786Z,8.88
2023-08-17T04:01:30.716Z,10.25
2023-08-17T04:02:02.836Z,7.65
2023-08-17T04:02:34.670Z,10.85
2023-08-17T04:03:06.526Z,10.52
2023-08-17T04:03:38.329Z,13.05
2023-08-17T04:04:10.066Z,9.45
2023-08-17T04:04:41.848Z,8.77
2023-08-17T04:05:14.151Z,7.47
2023-08-17T04:05:46.080Z,11.05
2023-08-17T04:06:17.859Z,11.02
2023-08-17T04:06:49.745Z,10.45
2023-08-17T04:07:23.453Z,9.90
2023-08-17T04:08:02.693Z,10.82
2023-08-17T04:08:34.863Z,10.57
2023-08-17T04:09:07.029Z,9.45
2023-08-17T04:09:38.845Z,9.88
2023-08-17T04:10:10.616Z,9.98
2023-08-17T04:10:42.402Z,10.15
2023-08-17T04:11:14.149Z,12.02
2023-08-17T04:11:46.122Z,10.00
2023-08-17T04:12:18.708Z,10.90
2023-08-17T04:12:50.626Z,10.32
2023-08-17T04:13:22.343Z,10.20
2023-08-17T04:13:54.124Z,10.18
2023-08-17T04:14:26.602Z,9.55
2023-08-17T04:14:59.255Z,10.45
2023-08-17T04:15:32.393Z,13.25
2023-08-17T04:16:04.354Z,9.77
2023-08-17T04:16:36.483Z,9.75
2023-08-17T04:17:08.694Z,10.43
2023-08-17T04:17:40.582Z,11.43
2023-08-17T04:18:12.467Z,11.05
2023-08-17T04:18:44.349Z,10.20
2023-08-17T04:19:16.459Z,9.65
2023-08-17T04:19:48.661Z,9.73
2023-08-17T04:20:20.568Z,10.70
2023-08-17T04:20:55.036Z,10.05
2023-08-17T04:21:27.364Z,12.05
2023-08-17T04:21:59.607Z,10.13
2023-08-17T04:22:31.442Z,10.13
2023-08-17T04:23:03.328Z,10.45
2023-08-17T04:23:35.234Z,10.43
2023-08-17T04:24:07.448Z,9.18
2023-08-17T04:24:39.297Z,9.50
2023-08-17T04:25:11.342Z,9.75
2023-08-17T04:25:44.534Z,9.35
2023-08-17T04:26:16.517Z,9.60
2023-08-17T04:26:48.589Z,9.40
2023-08-17T04:27:20.923Z,10.40
2023-08-17T04:27:53.344Z,10.13
2023-08-17T04:28:25.350Z,11.93
2023-08-17T04:28:58.583Z,10.30
2023-08-17T04:29:31.745Z,10.95
2023-08-17T04:30:05.249Z,12.32
2023-08-17T04:30:44.414Z,13.73
2023-08-17T04:31:18.183Z,10.68
2023-08-17T04:31:52.649Z,10.75
2023-08-17T04:32:25.535Z,9.75
2023-08-17T04:32:57.456Z,10.75
2023-08-17T04:33:29.384Z,11.52
2023-08-17T04:34:01.229Z,10.40
2023-08-17T04:34:33.892Z,9.68
2023-08-17T04:35:06.164Z,10.02
2023-08-17T04:35:38.028Z,13.10
2023-08-17T04:36:09.922Z,10.82
2023-08-17T04:36:41.768Z,9.93
2023-08-17T04:37:13.526Z,9.70
2023-08-17T04:37:45.829Z,9.70
2023-08-17T04:38:17.713Z,11.98
2023-08-17T04:38:50.180Z,9.07
2023-08-17T04:39:21.952Z,10.27
2023-08-17T04:39:53.909Z,8.30
2023-08-17T04:40:27.082Z,11.20
2023-08-17T04:40:59.272Z,10.25
2023-08-17T04:41:31.847Z,9.05
2023-08-17T04:42:04.731Z,9.40
2023-08-17T04:42:39.101Z,9.93
2023-08-17T04:43:11.716Z,9.95
2023-08-17T04:43:44.120Z,10.95
2023-08-17T04:44:17.627Z,10.55
2023-08-17T04:44:49.394Z,8.52
2023-08-17T04:45:21.315Z,8.82
2023-08-17T04:45:53.889Z,10.18
2023-08-17T04:46:25.851Z,11.27
2023-08-17T04:46:57.616Z,9.27
2023-08-17T04:47:29.557Z,10.90
2023-08-17T04:48:01.579Z,9.50
2023-08-17T04:48:35.011Z,11.27
2023-08-17T04:49:07.112Z,9.20
2023-08-17T04:49:39.035Z,10.40
2023-08-17T04:50:11.488Z,8.82
2023-08-17T04:50:43.314Z,10.73
2023-08-17T04:51:17.044Z,9.25
2023-08-17T04:51:49.304Z,9.90
2023-08-17T04:52:22.308Z,8.38
2023-08-17T04:52:54.074Z,9.35
2023-08-17T04:53:26.104Z,9.45
2023-08-17T04:53:57.939Z,8.38
2023-08-17T04:54:30.535Z,11.98
2023-08-17T04:55:02.451Z,10.35
2023-08-17T04:55:36.343Z,7.72
2023-08-17T04:56:08.239Z,9.00
2023-08-17T04:56:40.079Z,8.60
2023-08-17T04:57:11.919Z,9.25
2023-08-17T04:57:43.679Z,7.82
2023-08-17T04:58:17.261Z,8.65
2023-08-17T04:58:49.258Z,10.05
2023-08-17T04:59:21.902Z,8.07
2023-08-17T04:59:53.672Z,9.23
2023-08-17T05:00:32.040Z,9.20
2023-08-17T05:01:04.636Z,8.45
2023-08-17T05:01:36.987Z,8.38
2023-08-17T05:02:09.578Z,8.80
2023-08-17T05:02:43.608Z,12.52
2023-08-17T05:03:24.128Z,8.35
2023-08-17T05:04:06.156Z,8.50
2023-08-17T05:04:40.104Z,8.48
2023-08-17T05:05:11.972Z,8.73
2023-08-17T05:05:43.788Z,8.82
2023-08-17T05:06:16.420Z,8.63
2023-08-17T05:06:48.651Z,8.50
2023-08-17T05:07:20.405Z,10.05
2023-08-17T05:07:53.954Z,10.00
2023-08-17T05:08:25.803Z,9.25
2023-08-17T05:08:58.030Z,7.82
2023-08-17T05:09:31.055Z,8.77
2023-08-17T05:10:04.234Z,8.98
2023-08-17T05:10:39.046Z,9.30
2023-08-17T05:11:11.211Z,8.32
2023-08-17T05:11:43.446Z,9.68
2023-08-17T05:12:16.419Z,10.70
2023-08-17T05:12:48.366Z,8.90
2023-08-17T05:13:20.789Z,9.18
2023-08-17T05:13:53.002Z,8.05
2023-08-17T05:14:24.801Z,10.00
2023-08-17T05:14:56.625Z,8.35
2023-08-17T05:15:28.606Z,8.75
2023-08-17T05:16:01.332Z,7.38
2023-08-17T05:16:33.976Z,9.07
2023-08-17T05:17:05.788Z,8.57
2023-08-17T05:17:37.727Z,10.10
2023-08-17T05:18:09.708Z,8.68
2023-08-17T05:18:42.683Z,8.52
2023-08-17T05:19:18.704Z,7.80
2023-08-17T05:19:50.923Z,7.93
2023-08-17T05:20:22.908Z,11.05
2023-08-17T05:20:55.131Z,8.88
2023-08-17T05:21:27.457Z,10.05
2023-08-17T05:21:59.260Z,7.78
2023-08-17T05:22:31.350Z,7.65
2023-08-17T05:23:03.460Z,7.25
2023-08-17T05:23:35.324Z,7.50
2023-08-17T05:24:07.394Z,7.90
2023-08-17T05:24:40.045Z,7.30
2023-08-17T05:25:12.729Z,7.75
2023-08-17T05:25:49.121Z,7.88
2023-08-17T05:26:21.373Z,6.97
2023-08-17T05:26:53.197Z,8.95
2023-08-17T05:27:25.262Z,7.93
2023-08-17T05:27:57.382Z,7.22
2023-08-17T05:28:29.815Z,7.85
2023-08-17T05:29:01.818Z,10.00
2023-08-17T05:29:33.638Z,8.52
2023-08-17T05:30:06.767Z,7.90
2023-08-17T05:30:38.560Z,13.70
2023-08-17T05:31:10.572Z,8.00
2023-08-17T05:31:45.971Z,7.18
2023-08-17T05:32:17.742Z,8.40
2023-08-17T05:32:50.275Z,7.65
2023-08-17T05:33:22.145Z,9.48
2023-08-17T05:33:54.456Z,6.88
2023-08-17T05:34:28.941Z,10.82
2023-08-17T05:35:01.951Z,8.55
2023-08-17T05:35:33.884Z,8.40
2023-08-17T05:36:05.830Z,8.70
2023-08-17T05:36:37.641Z,8.40
2023-08-17T05:37:09.396Z,8.02
2023-08-17T05:37:41.296Z,9.13
2023-08-17T05:38:13.127Z,9.32
2023-08-17T05:38:46.423Z,10.55
2023-08-17T05:39:19.057Z,14.48
2023-08-17T05:39:50.962Z,8.57
2023-08-17T05:40:22.946Z,9.10
2023-08-17T05:40:58.988Z,9.55
2023-08-17T05:41:30.848Z,9.10
2023-08-17T05:42:02.884Z,10.20
2023-08-17T05:42:34.769Z,8.55
2023-08-17T05:43:06.588Z,7.28
2023-08-17T05:43:38.368Z,8.40
2023-08-17T05:44:10.929Z,10.48
2023-08-17T05:44:42.807Z,8.65
2023-08-17T05:45:14.579Z,9.63
2023-08-17T05:45:46.324Z,9.10
2023-08-17T05:46:18.187Z,9.05
2023-08-17T05:46:49.982Z,8.82
2023-08-17T05:47:21.834Z,7.55
2023-08-17T05:47:54.051Z,10.40
2023-08-17T05:48:26.371Z,18.52
2023-08-17T05:48:59.740Z,32.78
2023-08-17T05:49:32.107Z,15.85
2023-08-17T05:50:04.294Z,23.17
2023-08-17T05:50:36.088Z,11.20
2023-08-17T05:51:08.232Z,31.73
2023-08-17T05:51:40.106Z,15.35
2023-08-17T05:52:12.539Z,9.05
2023-08-17T05:52:44.314Z,14.13
2023-08-17T05:53:16.139Z,11.85
2023-08-17T05:53:47.926Z,10.43
2023-08-17T05:54:19.768Z,10.77
2023-08-17T05:54:51.484Z,9.27
2023-08-17T05:55:23.332Z,10.80
2023-08-17T05:55:55.125Z,13.90
2023-08-17T05:56:26.967Z,8.75
2023-08-17T05:56:58.699Z,9.40
2023-08-17T05:57:30.566Z,8.05
2023-08-17T05:58:03.173Z,6.72
2023-08-17T05:58:35.022Z,8.20
2023-08-17T05:59:06.805Z,11.50
2023-08-17T05:59:38.613Z,6.68
2023-08-17T06:00:14.460Z,8.30
2023-08-17T06:00:48.496Z,9.60
2023-08-17T06:01:20.368Z,9.85
2023-08-17T06:01:52.236Z,7.53
2023-08-17T06:02:24.071Z,9.77
2023-08-17T06:03:02.109Z,8.27
2023-08-17T06:03:34.927Z,8.68
2023-08-17T06:04:07.580Z,8.13
2023-08-17T06:04:39.366Z,8.27
2023-08-17T06:05:11.196Z,9.52
2023-08-17T06:05:43.000Z,8.82
2023-08-17T06:06:14.801Z,10.60
2023-08-17T06:06:46.660Z,8.68
2023-08-17T06:07:18.708Z,7.93
2023-08-17T06:07:50.481Z,8.05
2023-08-17T06:08:22.329Z,9.23
2023-08-17T06:08:54.191Z,8.30
2023-08-17T06:09:26.101Z,10.25
2023-08-17T06:09:57.871Z,7.70
2023-08-17T06:10:29.699Z,9.38
2023-08-17T06:11:01.690Z,8.93
2023-08-17T06:11:33.470Z,8.98
2023-08-17T06:12:05.777Z,7.75
2023-08-17T06:12:37.584Z,8.48
2023-08-17T06:13:09.421Z,8.20
2023-08-17T06:13:41.237Z,8.65
2023-08-17T06:14:13.349Z,10.02
2023-08-17T06:14:46.435Z,9.48
2023-08-17T06:15:18.287Z,7.90
2023-08-17T06:15:50.147Z,11.43
2023-08-17T06:16:22.111Z,9.27
2023-08-17T06:16:54.004Z,8.15
2023-08-17T06:17:26.313Z,8.10
2023-08-17T06:17:58.314Z,9.75
2023-08-17T06:18:30.962Z,8.52
2023-08-17T06:19:02.767Z,10.90
2023-08-17T06:19:36.924Z,9.00
2023-08-17T06:20:10.945Z,9.63
2023-08-17T06:20:43.015Z,12.23
2023-08-17T06:21:18.158Z,8.30
2023-08-17T06:21:50.035Z,9.40
2023-08-17T06:22:21.789Z,8.55
2023-08-17T06:22:58.228Z,7.82
2023-08-17T06:23:30.596Z,9.23
2023-08-17T06:24:02.362Z,10.32
2023-08-17T06:24:34.710Z,11.73
2023-08-17T06:25:07.093Z,10.15
2023-08-17T06:25:38.847Z,9.68
2023-08-17T06:26:10.730Z,10.88
2023-08-17T06:26:42.640Z,11.50
2023-08-17T06:27:15.917Z,10.13
2023-08-17T06:27:50.287Z,12.43
2023-08-17T06:28:22.017Z,9.23
2023-08-17T06:28:53.798Z,10.45
2023-08-17T06:29:25.601Z,10.23
2023-08-17T06:29:57.432Z,8.90
2023-08-17T06:30:29.211Z,10.43
2023-08-17T06:31:01.085Z,9.38
2023-08-17T06:31:33.042Z,12.48
2023-08-17T06:32:05.149Z,10.10
2023-08-17T06:32:37.129Z,10.27
2023-08-17T06:33:08.990Z,8.57
2023-08-17T06:33:40.765Z,12.60
2023-08-17T06:34:13.412Z,11.32
2023-08-17T06:34:45.353Z,12.38
2023-08-17T06:35:17.220Z,10.40
2023-08-17T06:35:50.235Z,10.43
2023-08-17T06:36:22.741Z,11.30
2023-08-17T06:36:59.492Z,12.30
2023-08-17T06:37:31.447Z,12.48
2023-08-17T06:38:03.380Z,11.18
2023-08-17T06:38:35.177Z,13.23
2023-08-17T06:39:06.925Z,10.57
2023-08-17T06:39:38.709Z,12.20
2023-08-17T06:40:10.946Z,11.63
2023-08-17T06:40:42.899Z,10.88
2023-08-17T06:41:14.830Z,12.57
2023-08-17T06:41:46.781Z,13.13
2023-08-17T06:42:18.661Z,11.55
2023-08-17T06:42:50.624Z,11.35
2023-08-17T06:43:22.582Z,10.88
2023-08-17T06:43:54.369Z,11.95
2023-08-17T06:44:26.240Z,10.05
2023-08-17T06:44:58.128Z,12.65
2023-08-17T06:45:30.057Z,11.55
2023-08-17T06:46:02.878Z,13.05
2023-08-17T06:46:34.770Z,10.65
2023-08-17T06:47:06.657Z,13.82
2023-08-17T06:47:38.524Z,10.98
2023-08-17T06:48:10.391Z,9.93
2023-08-17T06:48:42.224Z,13.85
2023-08-17T06:49:14.087Z,10.50
2023-08-17T06:49:45.995Z,10.02
2023-08-17T06:50:17.877Z,12.48
2023-08-17T06:50:49.678Z,11.05
2023-08-17T06:51:21.484Z,12.52
2023-08-17T06:51:53.285Z,10.77
2023-08-17T06:52:25.514Z,10.35
2023-08-17T06:52:57.345Z,11.75
2023-08-17T06:53:29.138Z,12.77
2023-08-17T06:54:01.067Z,12.65
2023-08-17T06:54:33.602Z,12.45
2023-08-17T06:55:05.765Z,9.90
2023-08-17T06:55:37.660Z,10.50
2023-08-17T06:56:10.675Z,12.05
2023-08-17T06:56:42.541Z,12.27
2023-08-17T06:57:14.360Z,10.65
2023-08-17T06:57:46.248Z,10.38
2023-08-17T06:58:18.112Z,10.60
2023-08-17T06:58:49.916Z,13.27
2023-08-17T06:59:21.721Z,12.60
2023-08-17T06:59:53.709Z,10.98
2023-08-17T07:00:25.709Z,12.70
2023-08-17T07:00:57.521Z,13.82
2023-08-17T07:01:29.537Z,11.30
2023-08-17T07:02:01.460Z,10.30
2023-08-17T07:02:50.567Z,11.73
2023-08-17T07:03:24.449Z,11.05
2023-08-17T07:03:58.115Z,11.98
2023-08-17T07:04:29.944Z,12.77
2023-08-17T07:05:02.334Z,12.85
2023-08-17T07:05:34.244Z,11.70
2023-08-17T07:06:06.154Z,12.57
2023-08-17T07:06:38.040Z,14.05
2023-08-17T07:07:09.953Z,12.35
2023-08-17T07:07:43.182Z,12.45
2023-08-17T07:08:15.017Z,10.75
2023-08-17T07:08:47.229Z,10.80
2023-08-17T07:09:19.891Z,11.75
2023-08-17T07:09:51.777Z,11.43
2023-08-17T07:10:23.638Z,12.20
2023-08-17T07:10:55.448Z,12.35
2023-08-17T07:11:27.273Z,12.15
2023-08-17T07:11:59.108Z,11.43
2023-08-17T07:12:30.911Z,13.00